sensor_id;sensor_type;location;lat;lon;timestamp;P1;durP1;ratioP1;P2;durP2;ratioP2
45944;SDS011;31655;48.972;10.686;2023-04-24T00:01:14;3.08;;;1.90;;
45944;SDS011;31655;48.972;10.686;2023-04-24T00:03:40;4.63;;;1.77;;
45944;SDS011;31655;48.972;10.686;2023-04-24T00:06:06;3.70;;;1.73;;
45944;SDS011;31655;48.972;10.686;2023-04-24T00:08:33;3.55;;;1.92;;
45944;SDS011;31655;48.972;10.686;2023-04-24T00:10:59;3.03;;;1.83;;
45944;SDS011;31655;48.972;10.686;2023-04-24T00:13:25;4.03;;;1.85;;
45944;SDS011;31655;48.972;10.686;2023-04-24T00:15:50;3.50;;;2.20;;
45944;SDS011;31655;48.972;10.686;2023-04-24T00:18:16;3.60;;;1.80;;
45944;SDS011;31655;48.972;10.686;2023-04-24T00:20:42;3.47;;;1.83;;
45944;SDS011;31655;48.972;10.686;2023-04-24T00:23:08;2.50;;;1.70;;
45944;SDS011;31655;48.972;10.686;2023-04-24T00:25:34;2.28;;;1.92;;
45944;SDS011;31655;48.972;10.686;2023-04-24T00:28:00;4.07;;;1.85;;
45944;SDS011;31655;48.972;10.686;2023-04-24T00:30:26;2.65;;;1.77;;
45944;SDS011;31655;48.972;10.686;2023-04-24T00:32:52;2.80;;;1.85;;
45944;SDS011;31655;48.972;10.686;2023-04-24T00:35:18;3.83;;;2.20;;
45944;SDS011;31655;48.972;10.686;2023-04-24T00:37:44;3.85;;;2.35;;
45944;SDS011;31655;48.972;10.686;2023-04-24T00:40:10;4.78;;;1.95;;
45944;SDS011;31655;48.972;10.686;2023-04-24T00:42:37;4.85;;;1.70;;
45944;SDS011;31655;48.972;10.686;2023-04-24T00:45:05;10.77;;;3.38;;
45944;SDS011;31655;48.972;10.686;2023-04-24T00:47:32;1.63;;;1.50;;
45944;SDS011;31655;48.972;10.686;2023-04-24T00:49:58;4.63;;;1.95;;
45944;SDS011;31655;48.972;10.686;2023-04-24T00:52:25;2.75;;;1.90;;
45944;SDS011;31655;48.972;10.686;2023-04-24T00:54:51;6.25;;;2.60;;
45944;SDS011;31655;48.972;10.686;2023-04-24T00:57:17;7.28;;;2.42;;
45944;SDS011;31655;48.972;10.686;2023-04-24T00:59:43;2.58;;;1.83;;
45944;SDS011;31655;48.972;10.686;2023-04-24T01:02:09;7.20;;;2.30;;
45944;SDS011;31655;48.972;10.686;2023-04-24T01:04:35;4.00;;;2.15;;
45944;SDS011;31655;48.972;10.686;2023-04-24T01:07:01;3.25;;;2.20;;
45944;SDS011;31655;48.972;10.686;2023-04-24T01:09:27;3.75;;;2.35;;
45944;SDS011;31655;48.972;10.686;2023-04-24T01:11:53;3.78;;;2.05;;
45944;SDS011;31655;48.972;10.686;2023-04-24T01:14:19;3.45;;;2.25;;
45944;SDS011;31655;48.972;10.686;2023-04-24T01:16:45;4.82;;;3.33;;
45944;SDS011;31655;48.972;10.686;2023-04-24T01:19:11;6.65;;;4.15;;
45944;SDS011;31655;48.972;10.686;2023-04-24T01:21:39;7.35;;;4.85;;
45944;SDS011;31655;48.972;10.686;2023-04-24T01:24:06;8.00;;;5.63;;
45944;SDS011;31655;48.972;10.686;2023-04-24T01:26:31;8.50;;;5.80;;
45944;SDS011;31655;48.972;10.686;2023-04-24T01:28:58;19.63;;;7.07;;
45944;SDS011;31655;48.972;10.686;2023-04-24T01:31:23;25.05;;;11.55;;
45944;SDS011;31655;48.972;10.686;2023-04-24T01:33:49;9.82;;;6.38;;
45944;SDS011;31655;48.972;10.686;2023-04-24T01:36:16;13.63;;;7.47;;
45944;SDS011;31655;48.972;10.686;2023-04-24T01:38:42;10.95;;;7.00;;
45944;SDS011;31655;48.972;10.686;2023-04-24T01:41:08;8.70;;;6.32;;
45944;SDS011;31655;48.972;10.686;2023-04-24T01:43:35;13.45;;;6.50;;
45944;SDS011;31655;48.972;10.686;2023-04-24T01:46:01;10.80;;;6.13;;
45944;SDS011;31655;48.972;10.686;2023-04-24T01:48:27;11.25;;;6.50;;
45944;SDS011;31655;48.972;10.686;2023-04-24T01:50:54;12.50;;;5.50;;
45944;SDS011;31655;48.972;10.686;2023-04-24T01:53:20;8.60;;;5.60;;
45944;SDS011;31655;48.972;10.686;2023-04-24T01:55:46;8.27;;;5.57;;
45944;SDS011;31655;48.972;10.686;2023-04-24T01:58:12;11.57;;;5.95;;
45944;SDS011;31655;48.972;10.686;2023-04-24T02:00:37;8.55;;;5.00;;
45944;SDS011;31655;48.972;10.686;2023-04-24T02:03:03;11.63;;;5.07;;
45944;SDS011;31655;48.972;10.686;2023-04-24T02:05:29;7.05;;;5.30;;
45944;SDS011;31655;48.972;10.686;2023-04-24T02:07:54;8.23;;;4.38;;
45944;SDS011;31655;48.972;10.686;2023-04-24T02:10:20;7.50;;;4.35;;
45944;SDS011;31655;48.972;10.686;2023-04-24T02:12:46;6.35;;;4.65;;
45944;SDS011;31655;48.972;10.686;2023-04-24T02:15:12;10.23;;;4.10;;
45944;SDS011;31655;48.972;10.686;2023-04-24T02:17:38;13.85;;;4.97;;
45944;SDS011;31655;48.972;10.686;2023-04-24T02:20:05;8.88;;;3.83;;
45944;SDS011;31655;48.972;10.686;2023-04-24T02:22:31;6.85;;;3.55;;
45944;SDS011;31655;48.972;10.686;2023-04-24T02:24:57;7.55;;;4.20;;
45944;SDS011;31655;48.972;10.686;2023-04-24T02:27:22;6.40;;;3.88;;
45944;SDS011;31655;48.972;10.686;2023-04-24T02:29:48;6.80;;;4.28;;
45944;SDS011;31655;48.972;10.686;2023-04-24T02:32:14;7.47;;;3.78;;
45944;SDS011;31655;48.972;10.686;2023-04-24T02:34:40;4.43;;;3.13;;
45944;SDS011;31655;48.972;10.686;2023-04-24T02:37:06;7.55;;;3.97;;
45944;SDS011;31655;48.972;10.686;2023-04-24T02:39:32;6.45;;;3.60;;
45944;SDS011;31655;48.972;10.686;2023-04-24T02:41:58;5.75;;;3.42;;
45944;SDS011;31655;48.972;10.686;2023-04-24T02:44:23;5.85;;;3.10;;
45944;SDS011;31655;48.972;10.686;2023-04-24T02:46:49;8.18;;;3.80;;
45944;SDS011;31655;48.972;10.686;2023-04-24T02:49:15;5.50;;;3.53;;
45944;SDS011;31655;48.972;10.686;2023-04-24T02:51:41;4.43;;;3.40;;
45944;SDS011;31655;48.972;10.686;2023-04-24T02:54:07;4.80;;;3.13;;
45944;SDS011;31655;48.972;10.686;2023-04-24T02:56:34;6.57;;;3.70;;
45944;SDS011;31655;48.972;10.686;2023-04-24T02:59:00;4.63;;;2.85;;
45944;SDS011;31655;48.972;10.686;2023-04-24T03:01:26;6.53;;;3.45;;
45944;SDS011;31655;48.972;10.686;2023-04-24T03:03:52;6.53;;;3.30;;
45944;SDS011;31655;48.972;10.686;2023-04-24T03:06:18;4.07;;;2.92;;
45944;SDS011;31655;48.972;10.686;2023-04-24T03:08:45;4.45;;;2.92;;
45944;SDS011;31655;48.972;10.686;2023-04-24T03:11:11;3.95;;;3.10;;
45944;SDS011;31655;48.972;10.686;2023-04-24T03:13:37;4.78;;;3.35;;
45944;SDS011;31655;48.972;10.686;2023-04-24T03:16:03;3.53;;;2.78;;
45944;SDS011;31655;48.972;10.686;2023-04-24T03:18:29;7.38;;;3.30;;
45944;SDS011;31655;48.972;10.686;2023-04-24T03:20:55;4.40;;;3.03;;
45944;SDS011;31655;48.972;10.686;2023-04-24T03:23:21;7.22;;;3.42;;
45944;SDS011;31655;48.972;10.686;2023-04-24T03:25:47;4.13;;;2.75;;
45944;SDS011;31655;48.972;10.686;2023-04-24T03:28:13;3.97;;;2.58;;
45944;SDS011;31655;48.972;10.686;2023-04-24T03:30:39;4.68;;;2.78;;
45944;SDS011;31655;48.972;10.686;2023-04-24T03:33:04;5.65;;;2.90;;
45944;SDS011;31655;48.972;10.686;2023-04-24T03:35:30;5.75;;;2.90;;
45944;SDS011;31655;48.972;10.686;2023-04-24T03:37:56;4.28;;;2.50;;
45944;SDS011;31655;48.972;10.686;2023-04-24T03:40:22;4.57;;;3.22;;
45944;SDS011;31655;48.972;10.686;2023-04-24T03:42:47;3.15;;;2.63;;
45944;SDS011;31655;48.972;10.686;2023-04-24T03:45:13;9.15;;;3.55;;
45944;SDS011;31655;48.972;10.686;2023-04-24T03:47:39;4.32;;;3.25;;
45944;SDS011;31655;48.972;10.686;2023-04-24T03:50:05;10.30;;;3.80;;
45944;SDS011;31655;48.972;10.686;2023-04-24T03:52:31;6.47;;;3.28;;
45944;SDS011;31655;48.972;10.686;2023-04-24T03:54:58;4.65;;;3.20;;
45944;SDS011;31655;48.972;10.686;2023-04-24T03:57:24;5.43;;;3.03;;
45944;SDS011;31655;48.972;10.686;2023-04-24T03:59:49;5.13;;;3.00;;
45944;SDS011;31655;48.972;10.686;2023-04-24T04:02:16;6.35;;;3.45;;
45944;SDS011;31655;48.972;10.686;2023-04-24T04:04:41;6.30;;;3.92;;
45944;SDS011;31655;48.972;10.686;2023-04-24T04:07:07;5.85;;;4.05;;
45944;SDS011;31655;48.972;10.686;2023-04-24T04:09:33;8.30;;;3.70;;
45944;SDS011;31655;48.972;10.686;2023-04-24T04:11:59;5.57;;;3.85;;
45944;SDS011;31655;48.972;10.686;2023-04-24T04:14:25;9.35;;;4.05;;
45944;SDS011;31655;48.972;10.686;2023-04-24T04:16:51;13.65;;;4.35;;
45944;SDS011;31655;48.972;10.686;2023-04-24T04:19:17;7.25;;;4.15;;
45944;SDS011;31655;48.972;10.686;2023-04-24T04:21:43;6.45;;;3.90;;
45944;SDS011;31655;48.972;10.686;2023-04-24T04:24:10;4.88;;;3.88;;
45944;SDS011;31655;48.972;10.686;2023-04-24T04:26:36;5.78;;;4.00;;
45944;SDS011;31655;48.972;10.686;2023-04-24T04:29:02;5.25;;;4.13;;
45944;SDS011;31655;48.972;10.686;2023-04-24T04:31:28;7.93;;;4.28;;
45944;SDS011;31655;48.972;10.686;2023-04-24T04:33:55;6.40;;;3.67;;
45944;SDS011;31655;48.972;10.686;2023-04-24T04:36:21;5.63;;;3.78;;
45944;SDS011;31655;48.972;10.686;2023-04-24T04:38:48;7.13;;;4.30;;
45944;SDS011;31655;48.972;10.686;2023-04-24T04:41:14;7.05;;;4.22;;
45944;SDS011;31655;48.972;10.686;2023-04-24T04:43:41;6.45;;;4.05;;
45944;SDS011;31655;48.972;10.686;2023-04-24T04:46:07;8.23;;;3.80;;
45944;SDS011;31655;48.972;10.686;2023-04-24T04:48:35;6.28;;;3.95;;
45944;SDS011;31655;48.972;10.686;2023-04-24T04:51:01;6.70;;;3.92;;
45944;SDS011;31655;48.972;10.686;2023-04-24T04:53:27;10.40;;;4.43;;
45944;SDS011;31655;48.972;10.686;2023-04-24T04:55:53;5.32;;;4.00;;
45944;SDS011;31655;48.972;10.686;2023-04-24T04:58:18;6.68;;;4.32;;
45944;SDS011;31655;48.972;10.686;2023-04-24T05:00:44;4.50;;;3.65;;
45944;SDS011;31655;48.972;10.686;2023-04-24T05:03:11;6.93;;;4.07;;
45944;SDS011;31655;48.972;10.686;2023-04-24T05:05:36;11.43;;;5.18;;
45944;SDS011;31655;48.972;10.686;2023-04-24T05:08:05;5.22;;;3.75;;
45944;SDS011;31655;48.972;10.686;2023-04-24T05:10:34;5.63;;;3.80;;
45944;SDS011;31655;48.972;10.686;2023-04-24T05:12:59;5.18;;;3.15;;
45944;SDS011;31655;48.972;10.686;2023-04-24T05:15:26;7.28;;;3.72;;
45944;SDS011;31655;48.972;10.686;2023-04-24T05:17:51;4.63;;;3.17;;
45944;SDS011;31655;48.972;10.686;2023-04-24T05:20:17;7.35;;;3.80;;
45944;SDS011;31655;48.972;10.686;2023-04-24T05:22:43;4.80;;;3.50;;
45944;SDS011;31655;48.972;10.686;2023-04-24T05:25:09;4.95;;;2.90;;
45944;SDS011;31655;48.972;10.686;2023-04-24T05:27:34;4.93;;;2.90;;
45944;SDS011;31655;48.972;10.686;2023-04-24T05:30:00;7.60;;;3.35;;
45944;SDS011;31655;48.972;10.686;2023-04-24T05:32:26;4.35;;;2.80;;
45944;SDS011;31655;48.972;10.686;2023-04-24T05:34:52;6.88;;;3.47;;
45944;SDS011;31655;48.972;10.686;2023-04-24T05:37:18;7.68;;;4.07;;
45944;SDS011;31655;48.972;10.686;2023-04-24T05:39:44;4.93;;;3.40;;
45944;SDS011;31655;48.972;10.686;2023-04-24T05:42:10;7.03;;;3.90;;
45944;SDS011;31655;48.972;10.686;2023-04-24T05:44:36;4.45;;;2.95;;
45944;SDS011;31655;48.972;10.686;2023-04-24T05:47:02;7.13;;;3.00;;
45944;SDS011;31655;48.972;10.686;2023-04-24T05:49:28;4.45;;;3.05;;
45944;SDS011;31655;48.972;10.686;2023-04-24T05:51:53;6.22;;;2.88;;
45944;SDS011;31655;48.972;10.686;2023-04-24T05:54:19;3.42;;;2.55;;
45944;SDS011;31655;48.972;10.686;2023-04-24T05:56:45;4.35;;;3.00;;
45944;SDS011;31655;48.972;10.686;2023-04-24T05:59:11;4.75;;;2.53;;
45944;SDS011;31655;48.972;10.686;2023-04-24T06:01:36;5.22;;;2.72;;
45944;SDS011;31655;48.972;10.686;2023-04-24T06:04:03;5.50;;;2.80;;
45944;SDS011;31655;48.972;10.686;2023-04-24T06:06:29;3.88;;;2.67;;
45944;SDS011;31655;48.972;10.686;2023-04-24T06:08:55;2.50;;;1.98;;
45944;SDS011;31655;48.972;10.686;2023-04-24T06:11:21;3.95;;;2.25;;
45944;SDS011;31655;48.972;10.686;2023-04-24T06:13:47;2.30;;;1.85;;
45944;SDS011;31655;48.972;10.686;2023-04-24T06:16:13;4.10;;;2.05;;
45944;SDS011;31655;48.972;10.686;2023-04-24T06:18:39;3.22;;;1.98;;
45944;SDS011;31655;48.972;10.686;2023-04-24T06:21:05;3.75;;;1.58;;
45944;SDS011;31655;48.972;10.686;2023-04-24T06:23:31;3.90;;;2.15;;
45944;SDS011;31655;48.972;10.686;2023-04-24T06:25:58;1.75;;;1.35;;
45944;SDS011;31655;48.972;10.686;2023-04-24T06:28:24;4.78;;;1.80;;
45944;SDS011;31655;48.972;10.686;2023-04-24T06:30:50;2.67;;;1.48;;
45944;SDS011;31655;48.972;10.686;2023-04-24T06:33:16;6.18;;;1.48;;
45944;SDS011;31655;48.972;10.686;2023-04-24T06:35:42;2.30;;;1.40;;
45944;SDS011;31655;48.972;10.686;2023-04-24T06:38:07;2.53;;;1.00;;
45944;SDS011;31655;48.972;10.686;2023-04-24T06:40:33;1.42;;;1.33;;
45944;SDS011;31655;48.972;10.686;2023-04-24T06:42:59;3.25;;;1.42;;
45944;SDS011;31655;48.972;10.686;2023-04-24T06:45:27;3.45;;;1.38;;
45944;SDS011;31655;48.972;10.686;2023-04-24T06:47:53;2.20;;;1.20;;
45944;SDS011;31655;48.972;10.686;2023-04-24T06:50:19;2.08;;;1.63;;
45944;SDS011;31655;48.972;10.686;2023-04-24T06:52:45;2.83;;;1.50;;
45944;SDS011;31655;48.972;10.686;2023-04-24T06:55:11;2.00;;;1.42;;
45944;SDS011;31655;48.972;10.686;2023-04-24T06:57:36;2.92;;;1.60;;
45944;SDS011;31655;48.972;10.686;2023-04-24T07:00:03;1.30;;;1.20;;
45944;SDS011;31655;48.972;10.686;2023-04-24T07:02:30;2.55;;;1.83;;
45944;SDS011;31655;48.972;10.686;2023-04-24T07:04:55;2.15;;;1.20;;
45944;SDS011;31655;48.972;10.686;2023-04-24T07:07:22;1.20;;;1.10;;
45944;SDS011;31655;48.972;10.686;2023-04-24T07:09:48;3.72;;;1.23;;
45944;SDS011;31655;48.972;10.686;2023-04-24T07:12:14;1.45;;;1.10;;
45944;SDS011;31655;48.972;10.686;2023-04-24T07:14:41;2.35;;;1.40;;
45944;SDS011;31655;48.972;10.686;2023-04-24T07:17:07;1.52;;;1.10;;
45944;SDS011;31655;48.972;10.686;2023-04-24T07:19:33;2.40;;;1.20;;
45944;SDS011;31655;48.972;10.686;2023-04-24T07:22:00;2.83;;;1.23;;
45944;SDS011;31655;48.972;10.686;2023-04-24T07:24:26;1.40;;;1.30;;
45944;SDS011;31655;48.972;10.686;2023-04-24T07:26:52;1.75;;;1.63;;
45944;SDS011;31655;48.972;10.686;2023-04-24T07:29:19;2.83;;;1.52;;
45944;SDS011;31655;48.972;10.686;2023-04-24T07:31:44;2.00;;;1.10;;
45944;SDS011;31655;48.972;10.686;2023-04-24T07:34:11;4.50;;;1.75;;
45944;SDS011;31655;48.972;10.686;2023-04-24T07:36:36;1.45;;;1.35;;
45944;SDS011;31655;48.972;10.686;2023-04-24T07:39:05;2.15;;;1.60;;
45944;SDS011;31655;48.972;10.686;2023-04-24T07:41:31;1.60;;;1.30;;
45944;SDS011;31655;48.972;10.686;2023-04-24T07:43:56;3.05;;;1.90;;
45944;SDS011;31655;48.972;10.686;2023-04-24T07:46:23;3.22;;;1.65;;
45944;SDS011;31655;48.972;10.686;2023-04-24T07:48:49;2.50;;;1.63;;
45944;SDS011;31655;48.972;10.686;2023-04-24T07:51:15;1.75;;;1.30;;
45944;SDS011;31655;48.972;10.686;2023-04-24T07:53:41;1.88;;;1.45;;
45944;SDS011;31655;48.972;10.686;2023-04-24T07:56:07;2.15;;;1.63;;
45944;SDS011;31655;48.972;10.686;2023-04-24T07:58:33;4.05;;;1.90;;
45944;SDS011;31655;48.972;10.686;2023-04-24T08:00:59;3.30;;;1.65;;
45944;SDS011;31655;48.972;10.686;2023-04-24T08:03:25;1.40;;;1.30;;
45944;SDS011;31655;48.972;10.686;2023-04-24T08:05:51;2.35;;;1.35;;
45944;SDS011;31655;48.972;10.686;2023-04-24T08:08:17;1.30;;;1.20;;
45944;SDS011;31655;48.972;10.686;2023-04-24T08:10:43;2.65;;;1.45;;
45944;SDS011;31655;48.972;10.686;2023-04-24T08:13:09;2.53;;;1.60;;
45944;SDS011;31655;48.972;10.686;2023-04-24T08:15:36;3.75;;;1.70;;
45944;SDS011;31655;48.972;10.686;2023-04-24T08:18:02;1.90;;;1.42;;
45944;SDS011;31655;48.972;10.686;2023-04-24T08:20:28;2.95;;;1.70;;
45944;SDS011;31655;48.972;10.686;2023-04-24T08:22:55;2.50;;;1.63;;
45944;SDS011;31655;48.972;10.686;2023-04-24T08:25:21;3.33;;;1.80;;
45944;SDS011;31655;48.972;10.686;2023-04-24T08:27:48;4.63;;;1.70;;
45944;SDS011;31655;48.972;10.686;2023-04-24T08:30:14;1.50;;;1.40;;
45944;SDS011;31655;48.972;10.686;2023-04-24T08:32:40;2.58;;;2.08;;
45944;SDS011;31655;48.972;10.686;2023-04-24T08:35:06;3.40;;;1.67;;
45944;SDS011;31655;48.972;10.686;2023-04-24T08:37:34;3.67;;;2.20;;
45944;SDS011;31655;48.972;10.686;2023-04-24T08:40:00;3.05;;;2.45;;
45944;SDS011;31655;48.972;10.686;2023-04-24T08:42:28;2.28;;;2.08;;
45944;SDS011;31655;48.972;10.686;2023-04-24T08:44:57;2.83;;;2.03;;
45944;SDS011;31655;48.972;10.686;2023-04-24T08:47:23;5.53;;;2.22;;
45944;SDS011;31655;48.972;10.686;2023-04-24T08:49:49;2.70;;;1.88;;
45944;SDS011;31655;48.972;10.686;2023-04-24T08:52:16;3.53;;;1.70;;
45944;SDS011;31655;48.972;10.686;2023-04-24T08:54:42;2.13;;;1.73;;
45944;SDS011;31655;48.972;10.686;2023-04-24T08:57:10;3.55;;;1.90;;
45944;SDS011;31655;48.972;10.686;2023-04-24T08:59:37;3.22;;;1.67;;
45944;SDS011;31655;48.972;10.686;2023-04-24T09:02:03;3.92;;;1.27;;
45944;SDS011;31655;48.972;10.686;2023-04-24T09:04:29;4.25;;;1.52;;
45944;SDS011;31655;48.972;10.686;2023-04-24T09:06:58;4.47;;;1.42;;
45944;SDS011;31655;48.972;10.686;2023-04-24T09:09:24;2.33;;;1.27;;
45944;SDS011;31655;48.972;10.686;2023-04-24T09:11:51;3.80;;;1.60;;
45944;SDS011;31655;48.972;10.686;2023-04-24T09:14:20;2.83;;;1.52;;
45944;SDS011;31655;48.972;10.686;2023-04-24T09:16:47;1.98;;;1.40;;
45944;SDS011;31655;48.972;10.686;2023-04-24T09:19:13;1.63;;;1.48;;
45944;SDS011;31655;48.972;10.686;2023-04-24T09:21:39;2.15;;;1.45;;
45944;SDS011;31655;48.972;10.686;2023-04-24T09:24:07;3.22;;;1.95;;
45944;SDS011;31655;48.972;10.686;2023-04-24T09:26:42;4.38;;;2.03;;
45944;SDS011;31655;48.972;10.686;2023-04-24T09:29:13;3.63;;;1.50;;
45944;SDS011;31655;48.972;10.686;2023-04-24T09:31:40;2.63;;;1.58;;
45944;SDS011;31655;48.972;10.686;2023-04-24T09:34:06;1.50;;;1.20;;
45944;SDS011;31655;48.972;10.686;2023-04-24T09:36:39;1.35;;;1.20;;
45944;SDS011;31655;48.972;10.686;2023-04-24T09:39:14;2.55;;;1.70;;
45944;SDS011;31655;48.972;10.686;2023-04-24T09:41:54;2.63;;;1.80;;
45944;SDS011;31655;48.972;10.686;2023-04-24T09:44:24;3.13;;;2.30;;
45944;SDS011;31655;48.972;10.686;2023-04-24T09:46:55;3.28;;;2.40;;
45944;SDS011;31655;48.972;10.686;2023-04-24T09:49:26;5.25;;;2.38;;
45944;SDS011;31655;48.972;10.686;2023-04-24T09:52:09;2.72;;;2.03;;
45944;SDS011;31655;48.972;10.686;2023-04-24T09:54:35;2.33;;;2.03;;
45944;SDS011;31655;48.972;10.686;2023-04-24T09:57:04;2.17;;;1.92;;
45944;SDS011;31655;48.972;10.686;2023-04-24T09:59:32;3.75;;;2.10;;
45944;SDS011;31655;48.972;10.686;2023-04-24T10:01:58;4.43;;;2.38;;
45944;SDS011;31655;48.972;10.686;2023-04-24T10:04:25;3.25;;;1.90;;
45944;SDS011;31655;48.972;10.686;2023-04-24T10:06:53;3.00;;;1.80;;
45944;SDS011;31655;48.972;10.686;2023-04-24T10:09:21;3.58;;;1.92;;
45944;SDS011;31655;48.972;10.686;2023-04-24T10:11:52;3.70;;;2.03;;
45944;SDS011;31655;48.972;10.686;2023-04-24T10:14:23;2.78;;;2.28;;
45944;SDS011;31655;48.972;10.686;2023-04-24T10:16:51;2.65;;;2.25;;
45944;SDS011;31655;48.972;10.686;2023-04-24T10:19:18;1.98;;;1.73;;
45944;SDS011;31655;48.972;10.686;2023-04-24T10:21:45;2.95;;;2.10;;
45944;SDS011;31655;48.972;10.686;2023-04-24T10:24:15;3.22;;;1.52;;
45944;SDS011;31655;48.972;10.686;2023-04-24T10:26:42;2.90;;;2.03;;
45944;SDS011;31655;48.972;10.686;2023-04-24T10:29:08;2.13;;;1.58;;
45944;SDS011;31655;48.972;10.686;2023-04-24T10:31:37;3.25;;;1.60;;
45944;SDS011;31655;48.972;10.686;2023-04-24T10:34:04;3.45;;;1.23;;
45944;SDS011;31655;48.972;10.686;2023-04-24T10:36:31;6.28;;;2.03;;
45944;SDS011;31655;48.972;10.686;2023-04-24T10:38:58;1.92;;;1.30;;
45944;SDS011;31655;48.972;10.686;2023-04-24T10:41:27;3.58;;;1.38;;
45944;SDS011;31655;48.972;10.686;2023-04-24T10:44:07;1.83;;;1.20;;
45944;SDS011;31655;48.972;10.686;2023-04-24T10:46:37;1.33;;;1.00;;
45944;SDS011;31655;48.972;10.686;2023-04-24T10:49:07;3.03;;;1.02;;
45944;SDS011;31655;48.972;10.686;2023-04-24T10:51:52;1.63;;;1.23;;
45944;SDS011;31655;48.972;10.686;2023-04-24T10:54:29;1.33;;;1.00;;
45944;SDS011;31655;48.972;10.686;2023-04-24T10:59:51;1.83;;;1.25;;
45944;SDS011;31655;48.972;10.686;2023-04-24T11:02:37;1.67;;;1.30;;
45944;SDS011;31655;48.972;10.686;2023-04-24T11:05:05;3.83;;;0.85;;
45944;SDS011;31655;48.972;10.686;2023-04-24T11:10:37;1.70;;;0.95;;
45944;SDS011;31655;48.972;10.686;2023-04-24T11:13:23;1.65;;;1.15;;
45944;SDS011;31655;48.972;10.686;2023-04-24T11:16:14;6.18;;;1.67;;
45944;SDS011;31655;48.972;10.686;2023-04-24T11:19:06;4.97;;;1.20;;
45944;SDS011;31655;48.972;10.686;2023-04-24T11:26:52;3.83;;;1.60;;
45944;SDS011;31655;48.972;10.686;2023-04-24T11:29:20;1.00;;;0.98;;
45944;SDS011;31655;48.972;10.686;2023-04-24T11:31:46;1.77;;;1.27;;
45944;SDS011;31655;48.972;10.686;2023-04-24T11:34:16;3.58;;;1.25;;
45944;SDS011;31655;48.972;10.686;2023-04-24T11:36:43;1.48;;;1.00;;
45944;SDS011;31655;48.972;10.686;2023-04-24T11:39:09;5.85;;;1.38;;
45944;SDS011;31655;48.972;10.686;2023-04-24T11:41:36;4.32;;;1.35;;
45944;SDS011;31655;48.972;10.686;2023-04-24T11:44:03;1.50;;;0.88;;
45944;SDS011;31655;48.972;10.686;2023-04-24T11:46:30;1.15;;;0.90;;
45944;SDS011;31655;48.972;10.686;2023-04-24T11:48:57;3.15;;;0.88;;
45944;SDS011;31655;48.972;10.686;2023-04-24T11:51:24;1.52;;;0.88;;
45944;SDS011;31655;48.972;10.686;2023-04-24T11:53:51;4.18;;;0.93;;
45944;SDS011;31655;48.972;10.686;2023-04-24T11:56:17;1.85;;;1.15;;
45944;SDS011;31655;48.972;10.686;2023-04-24T11:58:44;1.83;;;1.13;;
45944;SDS011;31655;48.972;10.686;2023-04-24T12:01:11;1.77;;;1.25;;
45944;SDS011;31655;48.972;10.686;2023-04-24T12:03:37;3.33;;;1.20;;
45944;SDS011;31655;48.972;10.686;2023-04-24T12:06:10;2.53;;;1.10;;
45944;SDS011;31655;48.972;10.686;2023-04-24T12:08:37;3.25;;;1.40;;
45944;SDS011;31655;48.972;10.686;2023-04-24T12:11:04;4.88;;;1.40;;
45944;SDS011;31655;48.972;10.686;2023-04-24T12:13:34;2.75;;;1.30;;
45944;SDS011;31655;48.972;10.686;2023-04-24T12:16:04;3.15;;;1.73;;
45944;SDS011;31655;48.972;10.686;2023-04-24T12:18:30;3.00;;;1.00;;
45944;SDS011;31655;48.972;10.686;2023-04-24T12:21:14;1.50;;;1.40;;
45944;SDS011;31655;48.972;10.686;2023-04-24T12:23:55;1.40;;;1.30;;
45944;SDS011;31655;48.972;10.686;2023-04-24T12:26:21;1.98;;;1.50;;
45944;SDS011;31655;48.972;10.686;2023-04-24T12:28:48;2.72;;;1.50;;
45944;SDS011;31655;48.972;10.686;2023-04-24T12:31:14;1.50;;;1.30;;
45944;SDS011;31655;48.972;10.686;2023-04-24T12:33:41;2.30;;;1.50;;
45944;SDS011;31655;48.972;10.686;2023-04-24T12:36:09;1.90;;;1.30;;
45944;SDS011;31655;48.972;10.686;2023-04-24T12:38:37;3.53;;;2.03;;
45944;SDS011;31655;48.972;10.686;2023-04-24T12:41:06;3.55;;;1.15;;
45944;SDS011;31655;48.972;10.686;2023-04-24T12:43:35;1.20;;;1.10;;
45944;SDS011;31655;48.972;10.686;2023-04-24T12:46:01;3.00;;;1.60;;
45944;SDS011;31655;48.972;10.686;2023-04-24T12:48:28;2.22;;;1.30;;
45944;SDS011;31655;48.972;10.686;2023-04-24T12:50:54;3.85;;;1.90;;
45944;SDS011;31655;48.972;10.686;2023-04-24T12:53:21;2.17;;;1.20;;
45944;SDS011;31655;48.972;10.686;2023-04-24T12:55:47;4.80;;;1.77;;
45944;SDS011;31655;48.972;10.686;2023-04-24T12:58:18;1.90;;;1.55;;
45944;SDS011;31655;48.972;10.686;2023-04-24T13:00:47;1.85;;;1.45;;
45944;SDS011;31655;48.972;10.686;2023-04-24T13:03:13;1.70;;;1.30;;
45944;SDS011;31655;48.972;10.686;2023-04-24T13:05:39;2.95;;;1.48;;
45944;SDS011;31655;48.972;10.686;2023-04-24T13:08:05;2.45;;;1.48;;
45944;SDS011;31655;48.972;10.686;2023-04-24T13:10:31;1.00;;;0.90;;
45944;SDS011;31655;48.972;10.686;2023-04-24T13:12:57;1.50;;;1.10;;
45944;SDS011;31655;48.972;10.686;2023-04-24T13:15:23;2.22;;;1.52;;
45944;SDS011;31655;48.972;10.686;2023-04-24T13:17:50;3.78;;;1.80;;
45944;SDS011;31655;48.972;10.686;2023-04-24T13:20:15;1.55;;;1.45;;
45944;SDS011;31655;48.972;10.686;2023-04-24T13:22:42;1.50;;;1.35;;
45944;SDS011;31655;48.972;10.686;2023-04-24T13:25:08;3.60;;;1.42;;
45944;SDS011;31655;48.972;10.686;2023-04-24T13:27:38;2.15;;;1.48;;
45944;SDS011;31655;48.972;10.686;2023-04-24T13:30:04;3.38;;;1.73;;
45944;SDS011;31655;48.972;10.686;2023-04-24T13:32:30;2.88;;;1.20;;
45944;SDS011;31655;48.972;10.686;2023-04-24T13:34:58;2.75;;;1.42;;
45944;SDS011;31655;48.972;10.686;2023-04-24T13:37:24;3.75;;;1.40;;
45944;SDS011;31655;48.972;10.686;2023-04-24T13:39:50;2.35;;;1.42;;
45944;SDS011;31655;48.972;10.686;2023-04-24T13:42:16;2.13;;;1.50;;
45944;SDS011;31655;48.972;10.686;2023-04-24T13:44:43;1.60;;;1.45;;
45944;SDS011;31655;48.972;10.686;2023-04-24T13:47:09;2.30;;;1.50;;
45944;SDS011;31655;48.972;10.686;2023-04-24T13:49:35;3.05;;;2.25;;
45944;SDS011;31655;48.972;10.686;2023-04-24T13:52:01;1.92;;;1.52;;
45944;SDS011;31655;48.972;10.686;2023-04-24T13:54:27;3.05;;;1.48;;
45944;SDS011;31655;48.972;10.686;2023-04-24T13:56:53;1.65;;;1.50;;
45944;SDS011;31655;48.972;10.686;2023-04-24T13:59:20;2.28;;;2.08;;
45944;SDS011;31655;48.972;10.686;2023-04-24T14:01:46;1.08;;;1.02;;
45944;SDS011;31655;48.972;10.686;2023-04-24T14:04:12;1.55;;;1.45;;
45944;SDS011;31655;48.972;10.686;2023-04-24T14:06:41;2.15;;;1.50;;
45944;SDS011;31655;48.972;10.686;2023-04-24T14:09:08;3.78;;;1.13;;
45944;SDS011;31655;48.972;10.686;2023-04-24T14:11:34;2.25;;;1.42;;
45944;SDS011;31655;48.972;10.686;2023-04-24T14:14:00;1.55;;;1.42;;
45944;SDS011;31655;48.972;10.686;2023-04-24T14:16:26;2.30;;;1.83;;
45944;SDS011;31655;48.972;10.686;2023-04-24T14:18:52;3.60;;;1.83;;
45944;SDS011;31655;48.972;10.686;2023-04-24T14:21:17;7.18;;;1.90;;
45944;SDS011;31655;48.972;10.686;2023-04-24T14:23:43;2.05;;;1.85;;
45944;SDS011;31655;48.972;10.686;2023-04-24T14:26:10;2.60;;;1.98;;
45944;SDS011;31655;48.972;10.686;2023-04-24T14:28:36;4.40;;;2.13;;
45944;SDS011;31655;48.972;10.686;2023-04-24T14:31:02;2.92;;;2.33;;
45944;SDS011;31655;48.972;10.686;2023-04-24T14:33:28;2.42;;;2.10;;
45944;SDS011;31655;48.972;10.686;2023-04-24T14:35:54;3.08;;;2.17;;
45944;SDS011;31655;48.972;10.686;2023-04-24T14:38:20;3.15;;;2.03;;
45944;SDS011;31655;48.972;10.686;2023-04-24T14:40:46;4.40;;;2.42;;
45944;SDS011;31655;48.972;10.686;2023-04-24T14:43:12;3.88;;;2.33;;